CST,Max TemperatureF,Mean TemperatureF,Min TemperatureF,Max Dew PointF,MeanDew PointF,Min DewpointF,Max Humidity, Mean Humidity, Min Humidity, Max Sea Level PressureIn, Mean Sea Level PressureIn, Min Sea Level PressureIn, Max VisibilityMiles, Mean VisibilityMiles, Min VisibilityMiles, Max Wind SpeedMPH, Mean Wind SpeedMPH, Max Gust SpeedMPH,PrecipitationIn, CloudCover, Events, WindDirDegrees
2013-11-1,57,50,42,43,40,37,92,72,51,29.84,29.70,29.57,10,10,8,17,10,23,0.00,2,,263
2013-11-2,54,45,36,39,35,29,89,65,41,30.18,30.03,29.84,10,10,10,22,9,28,0.00,3,,304
2013-11-3,57,45,32,34,31,28,89,64,38,30.27,30.19,30.11,10,10,10,18,9,24,0.00,0,,158
2013-11-4,57,51,45,44,39,34,66,61,55,30.17,30.11,30.06,10,10,10,20,10,29,0.00,5,,161
2013-11-5,57,54,51,54,51,44,96,81,66,30.21,30.09,29.92,10,6,2,21,11,29,0.39,8,Rain,167
2013-11-6,58,46,34,56,43,28,93,82,70,30.29,30.02,29.85,10,9,2,25,11,31,0.46,6,Rain-Thunderstorm,264
2013-11-7,53,40,27,36,29,26,92,67,41,30.35,30.32,30.28,10,10,10,17,7,21,0.00,0,,266
2013-11-8,54,40,26,34,28,23,92,65,38,30.35,30.18,29.98,10,10,9,21,10,29,0.00,0,,173
2013-11-9,66,54,42,38,35,31,71,49,26,30.28,30.08,29.97,10,10,10,23,12,29,0.00,0,,267
2013-11-10,51,41,31,32,29,27,78,60,42,30.44,30.35,30.25,10,10,10,15,5,18,0.00,1,,290
2013-11-11,59,43,27,43,32,20,85,67,49,30.59,30.30,30.15,10,8,2,24,13,30,T,7,Rain-Snow,328
2013-11-12,33,26,19,18,13,11,80,60,39,30.82,30.71,30.60,10,10,10,14,8,18,0.00,0,,333
2013-11-13,45,31,17,17,13,10,80,53,25,30.69,30.48,30.23,10,10,10,22,12,26,0.00,0,,200
2013-11-14,53,44,34,22,19,16,56,42,28,30.22,30.08,29.99,10,10,10,21,15,30,0.00,0,,208
2013-11-15,58,49,39,41,32,22,76,58,40,30.01,29.94,29.86,10,10,10,17,10,23,0.00,4,,183
2013-11-16,64,56,47,55,51,43,86,79,72,29.84,29.67,29.52,10,10,6,30,16,36,0.05,6,Rain,178
2013-11-17,73,58,43,62,52,39,90,69,47,29.96,29.52,29.28,10,10,6,44,17,59,0.12,3,Rain-Thunderstorm,232
2013-11-18,51,43,34,38,31,25,89,65,41,30.31,30.18,29.99,10,10,10,22,9,28,0.00,0,,306
2013-11-19,50,40,29,28,26,23,85,62,39,30.36,30.27,30.20,10,10,10,14,8,17,0.00,1,,133
2013-11-20,44,40,36,37,32,26,92,78,64,30.18,30.07,29.97,10,8,2,18,11,24,0.56,7,Rain,150
2013-11-21,49,44,38,45,41,37,93,80,66,30.28,30.14,30.05,10,7,2,17,6,21,0.27,8,Rain,11
2013-11-22,38,31,24,34,27,20,92,81,70,30.59,30.50,30.29,10,10,4,22,13,28,T,6,Rain,336
2013-11-23,26,20,13,18,11,6,84,65,46,30.78,30.70,30.58,10,10,10,23,13,28,0.00,0,,334
2013-11-24,28,19,10,10,7,0,83,58,32,30.79,30.65,30.41,10,10,10,13,7,17,0.00,0,,185
2013-11-25,35,30,25,19,15,11,68,54,40,30.39,30.24,30.17,10,10,10,17,10,22,0.00,6,,212
2013-11-26,36,28,19,24,16,8,84,65,46,30.30,30.19,30.12,10,10,10,25,13,32,0.00,4,,315
2013-11-27,27,20,12,10,7,4,76,57,37,30.41,30.33,30.25,10,10,10,15,8,20,0.00,0,,291
2013-11-28,40,30,20,19,15,11,74,59,44,30.53,30.32,30.19,10,10,10,18,10,22,0.00,0,,284
2013-11-29,41,29,17,23,18,12,80,61,41,30.61,30.50,30.35,10,10,10,13,8,16,0.00,0,,131
2013-11-30,53,43,32,34,30,24,82,64,46,30.32,30.18,30.08,10,10,10,16,8,20,0.00,0,,211